createdAt,value
2022-10-11T00:01:22.819Z,8.40
2022-10-11T00:06:25.314Z,8.40
2022-10-11T00:11:28.120Z,8.30
2022-10-11T00:16:30.517Z,8.30
2022-10-11T00:21:32.980Z,8.30
2022-10-11T00:26:35.408Z,8.20
2022-10-11T00:31:37.799Z,8.30
2022-10-11T00:36:40.177Z,8.10
2022-10-11T00:41:43.005Z,8.10
2022-10-11T00:46:55.829Z,8.00
2022-10-11T00:52:29.050Z,8.10
2022-10-11T00:57:34.865Z,8.20
2022-10-11T01:02:37.782Z,8.40
2022-10-11T01:07:41.754Z,8.50
2022-10-11T01:13:10.169Z,8.60
2022-10-11T01:18:54.253Z,8.90
2022-10-11T01:24:30.118Z,9.10
2022-10-11T01:29:56.198Z,9.40
2022-10-11T01:35:24.260Z,9.50
2022-10-11T01:40:35.304Z,9.60
2022-10-11T01:45:38.121Z,9.60
2022-10-11T01:50:43.474Z,9.70
2022-10-11T01:55:55.640Z,9.80
2022-10-11T02:01:06.881Z,9.70
2022-10-11T02:06:12.425Z,9.80
2022-10-11T02:11:28.766Z,10.10
2022-10-11T02:16:39.455Z,10.00
2022-10-11T02:21:44.565Z,10.30
2022-10-11T02:26:54.224Z,10.10
2022-10-11T02:31:59.431Z,10.30
2022-10-11T02:37:17.308Z,10.20
2022-10-11T02:42:43.015Z,10.30
2022-10-11T02:47:46.552Z,10.30
2022-10-11T02:52:49.025Z,10.30
2022-10-11T02:57:51.339Z,10.30
2022-10-11T03:02:53.741Z,10.30
2022-10-11T03:07:56.012Z,10.30
2022-10-11T03:12:58.282Z,10.10
2022-10-11T03:18:00.985Z,10.10
2022-10-11T03:23:03.319Z,10.10
2022-10-11T03:28:05.883Z,10.00
2022-10-11T03:33:08.194Z,9.90
2022-10-11T03:38:20.208Z,9.90
2022-10-11T03:43:22.513Z,9.80
2022-10-11T03:48:24.988Z,9.90
2022-10-11T03:53:27.386Z,9.60
2022-10-11T03:58:29.729Z,9.80
2022-10-11T04:03:32.065Z,9.40
2022-10-11T04:08:34.368Z,9.40
2022-10-11T04:13:36.673Z,9.20
2022-10-11T04:18:39.037Z,9.20
2022-10-11T04:23:41.325Z,9.10
2022-10-11T04:28:43.723Z,9.00
2022-10-11T04:33:46.102Z,9.00
2022-10-11T04:38:48.448Z,8.80
2022-10-11T04:43:50.794Z,8.80
2022-10-11T04:48:53.471Z,8.80
2022-10-11T04:53:55.843Z,8.70
2022-10-11T04:58:58.163Z,8.70
2022-10-11T05:04:00.597Z,8.30
2022-10-11T05:09:06.308Z,8.30
2022-10-11T05:14:08.755Z,8.10
2022-10-11T05:19:11.155Z,8.10
2022-10-11T05:24:13.447Z,7.90
2022-10-11T05:29:16.110Z,7.90
2022-10-11T05:34:18.421Z,7.90
2022-10-11T05:39:20.770Z,7.80
2022-10-11T05:44:25.854Z,7.90
2022-10-11T05:49:28.203Z,8.20
2022-10-11T05:54:31.338Z,8.60
2022-10-11T05:59:35.360Z,8.90
2022-10-11T06:04:37.696Z,9.10
2022-10-11T06:09:40.084Z,9.40
2022-10-11T06:14:42.402Z,9.50
2022-10-11T06:19:44.723Z,9.50
2022-10-11T06:24:47.180Z,9.50
2022-10-11T06:29:49.519Z,9.70
2022-10-11T06:34:51.928Z,10.20
2022-10-11T06:39:54.222Z,10.70
2022-10-11T06:44:56.563Z,10.50
2022-10-11T06:49:58.956Z,10.40
2022-10-11T06:55:01.279Z,10.50
2022-10-11T07:00:07.964Z,10.50
2022-10-11T07:05:14.055Z,10.70
2022-10-11T07:10:16.441Z,10.90
2022-10-11T07:15:18.894Z,11.10
2022-10-11T07:20:21.164Z,11.40
2022-10-11T07:25:23.632Z,11.30
2022-10-11T07:30:25.975Z,11.50
2022-10-11T07:35:28.302Z,11.70
2022-10-11T07:40:31.426Z,11.60
2022-10-11T07:45:33.794Z,12.00
2022-10-11T07:50:36.745Z,11.80
2022-10-11T07:55:42.491Z,12.30
2022-10-11T08:00:44.826Z,12.10
2022-10-11T08:05:47.267Z,12.60
2022-10-11T08:10:49.602Z,12.70
2022-10-11T08:15:52.084Z,12.50
2022-10-11T08:20:54.388Z,12.40
2022-10-11T08:25:58.273Z,12.50
2022-10-11T08:31:01.299Z,12.60
2022-10-11T08:36:06.846Z,13.00
2022-10-11T08:41:32.980Z,13.10
2022-10-11T08:46:35.494Z,13.00
2022-10-11T08:51:45.673Z,12.90
2022-10-11T08:56:49.100Z,13.00
2022-10-11T09:02:04.060Z,12.80
2022-10-11T09:07:37.996Z,13.10
2022-10-11T09:13:01.398Z,13.10
2022-10-11T09:18:09.739Z,13.10
2022-10-11T09:23:36.954Z,13.40
2022-10-11T09:29:16.930Z,13.60
2022-10-11T09:34:21.886Z,13.70
2022-10-11T09:39:27.354Z,14.10
2022-10-11T09:44:45.326Z,14.30
2022-10-11T09:49:57.701Z,14.50
2022-10-11T09:55:02.295Z,14.60
2022-10-11T10:00:22.132Z,14.30
2022-10-11T10:05:31.694Z,14.20
2022-10-11T10:10:43.918Z,14.20
2022-10-11T10:15:48.688Z,14.30
2022-10-11T10:20:57.046Z,14.10
2022-10-11T10:26:20.762Z,14.30
2022-10-11T10:31:25.699Z,14.60
2022-10-11T10:36:35.489Z,14.50
2022-10-11T10:41:40.463Z,14.90
2022-10-11T10:47:15.724Z,14.90
2022-10-11T10:52:20.824Z,14.90
2022-10-11T10:57:31.800Z,14.90
2022-10-11T11:02:57.852Z,14.80
2022-10-11T11:08:14.450Z,14.70
2022-10-11T11:13:22.530Z,14.80
2022-10-11T11:18:55.849Z,15.20
2022-10-11T11:24:37.206Z,15.20
2022-10-11T11:29:55.502Z,15.40
2022-10-11T11:35:03.819Z,15.20
2022-10-11T11:40:19.269Z,14.90
2022-10-11T11:45:23.652Z,14.50
2022-10-11T11:50:28.610Z,15.20
2022-10-11T11:55:49.311Z,15.70
2022-10-11T12:01:30.239Z,15.80
2022-10-11T12:06:43.733Z,16.20
2022-10-11T12:11:59.195Z,16.60
2022-10-11T12:17:21.361Z,16.30
2022-10-11T12:22:26.697Z,15.40
2022-10-11T12:27:44.034Z,15.10
2022-10-11T12:32:49.346Z,15.30
2022-10-11T12:37:52.439Z,15.40
2022-10-11T12:43:15.000Z,15.20
2022-10-11T12:48:39.936Z,14.60
2022-10-11T12:54:31.006Z,14.70
2022-10-11T12:59:46.707Z,14.60
2022-10-11T13:04:49.163Z,14.70
2022-10-11T13:09:55.299Z,15.00
2022-10-11T13:15:07.021Z,15.40
2022-10-11T13:20:20.474Z,15.60
2022-10-11T13:25:25.952Z,15.70
2022-10-11T13:30:31.603Z,15.70
2022-10-11T13:35:37.093Z,15.60
2022-10-11T13:40:39.439Z,15.40
2022-10-11T13:45:42.143Z,15.20
2022-10-11T13:50:52.175Z,15.10
2022-10-11T13:56:00.343Z,15.10
2022-10-11T14:01:05.756Z,14.90
2022-10-11T14:06:08.920Z,14.80
2022-10-11T14:11:13.282Z,14.70
2022-10-11T14:16:18.725Z,14.60
2022-10-11T14:21:30.018Z,14.50
2022-10-11T14:26:38.425Z,14.30
2022-10-11T14:31:44.019Z,14.20
2022-10-11T14:36:47.371Z,14.20
2022-10-11T14:41:51.668Z,14.10
2022-10-11T14:46:55.076Z,14.10
2022-10-11T14:51:59.412Z,14.00
2022-10-11T14:57:03.999Z,14.00
2022-10-11T15:02:08.139Z,13.80
2022-10-11T15:07:12.854Z,13.70
2022-10-11T15:12:15.304Z,13.70
2022-10-11T15:17:17.719Z,13.40
2022-10-11T15:22:20.098Z,13.20
2022-10-11T15:27:25.582Z,13.10
2022-10-11T15:32:28.160Z,13.00
2022-10-11T15:37:33.839Z,12.70
2022-10-11T15:42:39.594Z,12.60
2022-10-11T15:47:42.114Z,12.40
2022-10-11T15:52:45.152Z,12.30
2022-10-11T15:57:47.525Z,12.00
2022-10-11T16:02:51.963Z,11.80
2022-10-11T16:07:55.020Z,11.70
2022-10-11T16:12:57.539Z,11.40
2022-10-11T16:18:02.389Z,11.20
2022-10-11T16:23:04.807Z,11.00
2022-10-11T16:28:08.637Z,10.80
2022-10-11T16:33:11.047Z,10.70
2022-10-11T16:38:13.765Z,10.50
2022-10-11T16:43:16.150Z,10.20
2022-10-11T16:48:18.734Z,10.00
2022-10-11T16:53:21.854Z,10.00
2022-10-11T16:58:24.771Z,10.10
2022-10-11T17:03:27.454Z,9.90
2022-10-11T17:08:29.885Z,9.70
2022-10-11T17:13:32.510Z,9.70
2022-10-11T17:18:35.037Z,9.50
2022-10-11T17:23:37.974Z,9.30
2022-10-11T17:28:40.520Z,9.30
2022-10-11T17:33:43.028Z,9.20
2022-10-11T17:38:46.080Z,9.10
2022-10-11T17:43:48.523Z,9.00
2022-10-11T17:48:52.408Z,9.10
2022-10-11T17:53:54.873Z,8.90
2022-10-11T17:58:58.604Z,8.80
2022-10-11T18:04:04.254Z,8.90
2022-10-11T18:09:07.250Z,8.80
2022-10-11T18:14:10.148Z,8.80
2022-10-11T18:19:13.664Z,8.70
2022-10-11T18:24:16.728Z,8.60
2022-10-11T18:29:19.045Z,8.50
2022-10-11T18:34:21.450Z,8.40
2022-10-11T18:39:24.088Z,8.40
2022-10-11T18:44:26.535Z,8.40
2022-10-11T18:49:29.104Z,8.30
2022-10-11T18:54:31.627Z,8.20
2022-10-11T18:59:34.215Z,8.10
2022-10-11T19:04:36.640Z,8.00
2022-10-11T19:09:39.048Z,8.00
2022-10-11T19:14:42.077Z,8.00
2022-10-11T19:19:44.493Z,7.90
2022-10-11T19:24:46.845Z,7.80
2022-10-11T19:29:49.201Z,7.70
2022-10-11T19:34:51.662Z,7.70
2022-10-11T19:39:54.333Z,7.60
2022-10-11T19:44:56.820Z,7.60
2022-10-11T19:49:59.205Z,7.60
2022-10-11T19:55:01.626Z,7.60
2022-10-11T20:00:04.761Z,7.40
2022-10-11T20:05:07.396Z,7.30
2022-10-11T20:10:09.862Z,7.40
2022-10-11T20:15:12.225Z,7.30
2022-10-11T20:20:19.277Z,7.10
2022-10-11T20:25:21.830Z,7.20
2022-10-11T20:30:24.186Z,7.00
2022-10-11T20:35:26.614Z,7.00
2022-10-11T20:40:29.439Z,6.90
2022-10-11T20:45:31.837Z,6.80
2022-10-11T20:50:34.409Z,6.80
2022-10-11T20:55:36.826Z,6.70
2022-10-11T21:00:40.150Z,6.70
2022-10-11T21:05:42.695Z,6.80
2022-10-11T21:10:52.498Z,6.70
2022-10-11T21:15:55.185Z,6.70
2022-10-11T21:20:57.578Z,6.50
2022-10-11T21:26:02.310Z,6.50
2022-10-11T21:31:11.208Z,6.80
2022-10-11T21:36:16.294Z,6.50
2022-10-11T21:41:22.115Z,6.50
2022-10-11T21:46:42.028Z,6.40
2022-10-11T21:51:50.501Z,6.30
2022-10-11T21:56:52.957Z,6.20
2022-10-11T22:02:00.756Z,6.10
2022-10-11T22:07:04.329Z,6.10
2022-10-11T22:12:07.019Z,6.20
2022-10-11T22:17:09.406Z,6.20
2022-10-11T22:22:12.018Z,6.20
2022-10-11T22:27:14.383Z,6.30
2022-10-11T22:32:16.795Z,6.10
2022-10-11T22:37:19.124Z,6.20
2022-10-11T22:42:26.741Z,6.10
2022-10-11T22:47:30.060Z,6.20
2022-10-11T22:52:32.521Z,6.10
2022-10-11T22:57:35.064Z,6.00
2022-10-11T23:02:37.667Z,5.80
2022-10-11T23:07:40.329Z,6.00
2022-10-11T23:12:43.435Z,5.70
2022-10-11T23:17:48.619Z,5.80
2022-10-11T23:22:51.051Z,6.10
2022-10-11T23:27:53.495Z,5.70
2022-10-11T23:32:55.919Z,5.60
2022-10-11T23:37:58.324Z,5.60
2022-10-11T23:43:00.913Z,5.50
2022-10-11T23:48:03.685Z,5.40
2022-10-11T23:53:06.111Z,5.30
2022-10-11T23:58:08.455Z,5.10
